createdAt,value
2023-05-18T00:03:42.191Z,101208.24
2023-05-18T00:06:11.012Z,101207.04
2023-05-18T00:08:39.320Z,101208.30
2023-05-18T00:11:07.729Z,101206.68
2023-05-18T00:13:35.979Z,101201.69
2023-05-18T00:16:04.165Z,101198.48
2023-05-18T00:18:32.488Z,101200.10
2023-05-18T00:21:00.647Z,101199.02
2023-05-18T00:23:32.512Z,101199.91
2023-05-18T00:26:01.882Z,101195.09
2023-05-18T00:28:30.190Z,101192.42
2023-05-18T00:30:58.478Z,101195.46
2023-05-18T00:33:26.664Z,101195.10
2023-05-18T00:35:54.894Z,101191.35
2023-05-18T00:38:23.546Z,101192.96
2023-05-18T00:40:51.711Z,101197.06
2023-05-18T00:43:19.972Z,101196.90
2023-05-18T00:45:48.218Z,101193.85
2023-05-18T00:48:16.525Z,101190.98
2023-05-18T00:50:44.971Z,101187.41
2023-05-18T00:53:13.405Z,101184.55
2023-05-18T00:55:41.586Z,101182.95
2023-05-18T00:58:10.771Z,101180.98
2023-05-18T01:00:39.148Z,101179.92
2023-05-18T01:03:07.966Z,101179.56
2023-05-18T01:05:36.911Z,101178.85
2023-05-18T01:08:06.364Z,101177.25
2023-05-18T01:10:37.457Z,101171.16
2023-05-18T01:13:23.489Z,101172.05
2023-05-18T01:15:57.650Z,101173.66
2023-05-18T01:18:37.721Z,101172.41
2023-05-18T01:21:19.446Z,101167.95
2023-05-18T01:23:58.976Z,101164.37
2023-05-18T01:26:33.908Z,101167.77
2023-05-18T01:29:06.520Z,101168.84
2023-05-18T01:31:35.715Z,101165.98
2023-05-18T01:34:03.938Z,101162.94
2023-05-18T01:36:32.530Z,101164.73
2023-05-18T01:39:02.644Z,101167.77
2023-05-18T01:41:37.199Z,101167.78
2023-05-18T01:44:19.624Z,101171.19
2023-05-18T01:46:56.725Z,101171.36
2023-05-18T01:49:37.201Z,101174.05
2023-05-18T01:52:10.207Z,101173.68
2023-05-18T01:54:43.280Z,101179.58
2023-05-18T01:57:12.552Z,101170.82
2023-05-18T01:59:41.150Z,101172.08
2023-05-18T02:02:10.204Z,101171.52
2023-05-18T02:04:38.660Z,101168.68
2023-05-18T02:07:07.195Z,101167.25
2023-05-18T02:09:35.518Z,101165.10
2023-05-18T02:12:04.627Z,101164.02
2023-05-18T02:14:32.830Z,101165.64
2023-05-18T02:17:01.750Z,101159.20
2023-05-18T02:19:30.885Z,101158.13
2023-05-18T02:21:59.681Z,101155.81
2023-05-18T02:24:27.888Z,101158.50
2023-05-18T02:26:56.085Z,101159.39
2023-05-18T02:29:24.301Z,101156.70
2023-05-18T02:31:53.336Z,101154.74
2023-05-18T02:34:21.671Z,101151.17
2023-05-18T02:36:49.918Z,101152.07
2023-05-18T02:39:18.375Z,101149.55
2023-05-18T02:41:46.448Z,101145.98
2023-05-18T02:44:14.690Z,101148.67
2023-05-18T02:46:43.268Z,101148.50
2023-05-18T02:49:11.516Z,101147.26
2023-05-18T02:51:39.693Z,101141.17
2023-05-18T02:54:14.322Z,101139.20
2023-05-18T02:56:42.514Z,101136.17
2023-05-18T02:59:10.898Z,101131.35
2023-05-18T03:01:40.189Z,101132.05
2023-05-18T03:04:08.673Z,101128.30
2023-05-18T03:06:37.062Z,101135.81
2023-05-18T03:09:05.342Z,101136.89
2023-05-18T03:11:33.560Z,101142.24
2023-05-18T03:14:01.828Z,101142.97
2023-05-18T03:16:30.121Z,101142.26
2023-05-18T03:18:58.388Z,101146.00
2023-05-18T03:21:28.190Z,101142.43
2023-05-18T03:23:56.439Z,101142.43
2023-05-18T03:26:24.569Z,101147.45
2023-05-18T03:28:52.725Z,101143.33
2023-05-18T03:31:21.240Z,101140.99
2023-05-18T03:33:49.405Z,101141.17
2023-05-18T03:36:17.586Z,101141.91
2023-05-18T03:38:46.091Z,101143.86
2023-05-18T03:41:14.583Z,101142.97
2023-05-18T03:43:42.694Z,101150.84
2023-05-18T03:46:11.162Z,101155.13
2023-05-18T03:48:39.406Z,101158.35
2023-05-18T03:51:07.587Z,101156.21
2023-05-18T03:53:35.794Z,101158.17
2023-05-18T03:56:04.144Z,101158.69
2023-05-18T03:58:32.225Z,101159.77
2023-05-18T04:01:02.148Z,101161.92
2023-05-18T04:03:31.005Z,101167.81
2023-05-18T04:05:59.297Z,101172.11
2023-05-18T04:08:27.563Z,101170.48
2023-05-18T04:10:56.158Z,101169.95
2023-05-18T04:13:24.359Z,101171.75
2023-05-18T04:15:52.758Z,101173.35
2023-05-18T04:18:21.040Z,101173.35
2023-05-18T04:20:49.183Z,101175.32
2023-05-18T04:23:17.844Z,101180.14
2023-05-18T04:25:46.003Z,101178.17
2023-05-18T04:28:14.288Z,101172.82
2023-05-18T04:30:42.476Z,101174.95
2023-05-18T04:33:10.677Z,101175.33
2023-05-18T04:35:38.996Z,101176.75
2023-05-18T04:38:07.374Z,101178.00
2023-05-18T04:40:35.563Z,101176.92
2023-05-18T04:43:04.267Z,101179.61
2023-05-18T04:45:32.988Z,101182.83
2023-05-18T04:48:01.655Z,101177.45
2023-05-18T04:50:29.798Z,101179.06
2023-05-18T04:52:58.390Z,101184.07
2023-05-18T04:55:26.718Z,101184.42
2023-05-18T04:57:57.428Z,101185.14
2023-05-18T05:00:27.616Z,101182.28
2023-05-18T05:02:57.020Z,101182.10
2023-05-18T05:05:26.185Z,101187.46
2023-05-18T05:07:54.695Z,101191.23
2023-05-18T05:10:23.472Z,101188.89
2023-05-18T05:12:52.017Z,101187.81
2023-05-18T05:15:20.924Z,101189.08
2023-05-18T05:17:49.642Z,101190.68
2023-05-18T05:20:18.829Z,101197.29
2023-05-18T05:22:47.624Z,101196.93
2023-05-18T05:25:16.596Z,101198.38
2023-05-18T05:27:44.882Z,101200.33
2023-05-18T05:30:13.256Z,101200.52
2023-05-18T05:32:41.832Z,101200.88
2023-05-18T05:35:10.737Z,101201.59
2023-05-18T05:37:39.046Z,101202.48
2023-05-18T05:40:08.147Z,101205.34
2023-05-18T05:42:37.027Z,101205.70
2023-05-18T05:45:05.952Z,101210.52
2023-05-18T05:47:34.362Z,101212.14
2023-05-18T05:50:02.652Z,101213.92
2023-05-18T05:52:30.839Z,101217.68
2023-05-18T05:54:59.150Z,101220.17
2023-05-18T05:57:27.453Z,101219.45
2023-05-18T05:59:56.855Z,101227.14
2023-05-18T06:02:26.566Z,101228.92
2023-05-18T06:04:56.753Z,101233.75
2023-05-18T06:07:24.960Z,101234.81
2023-05-18T06:09:53.534Z,101239.46
2023-05-18T06:12:22.403Z,101242.14
2023-05-18T06:14:50.582Z,101240.86
2023-05-18T06:17:18.976Z,101241.94
2023-05-18T06:19:47.826Z,101241.93
2023-05-18T06:22:16.043Z,101248.71
2023-05-18T06:24:45.195Z,101253.17
2023-05-18T06:27:13.724Z,101254.23
2023-05-18T06:29:41.922Z,101253.84
2023-05-18T06:32:10.243Z,101253.09
2023-05-18T06:34:38.778Z,101253.42
2023-05-18T06:37:07.365Z,101255.92
2023-05-18T06:39:35.873Z,101257.14
2023-05-18T06:42:06.627Z,101257.63
2023-05-18T06:44:35.041Z,101255.43
2023-05-18T06:47:03.725Z,101258.27
2023-05-18T06:49:32.211Z,101260.73
2023-05-18T06:52:00.509Z,101258.88
2023-05-18T06:54:28.768Z,101258.80
2023-05-18T06:56:57.166Z,101256.77
2023-05-18T06:59:25.464Z,101258.30
2023-05-18T07:01:53.671Z,101260.73
2023-05-18T07:04:21.908Z,101266.54
2023-05-18T07:06:50.174Z,101268.42
2023-05-18T07:09:18.343Z,101266.04
2023-05-18T07:11:46.835Z,101266.34
2023-05-18T07:14:14.977Z,101268.78
2023-05-18T07:16:44.289Z,101272.55
2023-05-18T07:19:12.918Z,101273.59
2023-05-18T07:21:42.037Z,101274.75
2023-05-18T07:24:10.245Z,101280.14
2023-05-18T07:26:38.437Z,101280.46
2023-05-18T07:29:06.546Z,101287.45
2023-05-18T07:31:35.016Z,101288.21
2023-05-18T07:34:03.262Z,101291.63
2023-05-18T07:36:31.549Z,101293.09
2023-05-18T07:38:59.998Z,101291.23
2023-05-18T07:41:28.371Z,101297.34
2023-05-18T07:43:56.674Z,101295.75
2023-05-18T07:46:25.111Z,101299.58
2023-05-18T07:48:53.582Z,101300.59
2023-05-18T07:51:21.955Z,101300.23
2023-05-18T07:53:50.091Z,101297.45
2023-05-18T07:56:19.269Z,101298.77
2023-05-18T07:58:47.547Z,101302.90
2023-05-18T08:01:15.997Z,101300.75
2023-05-18T08:03:44.329Z,101306.61
2023-05-18T08:06:12.988Z,101307.21
2023-05-18T08:08:41.321Z,101310.20
2023-05-18T08:11:09.597Z,101312.10
2023-05-18T08:13:37.892Z,101306.40
2023-05-18T08:16:11.844Z,101309.73
2023-05-18T08:18:41.337Z,101313.12
2023-05-18T08:21:09.933Z,101314.95
2023-05-18T08:23:39.670Z,101318.95
2023-05-18T08:26:08.208Z,101323.09
2023-05-18T08:28:36.654Z,101321.20
2023-05-18T08:31:05.339Z,101324.42
2023-05-18T08:33:33.579Z,101328.58
2023-05-18T08:36:01.888Z,101328.36
2023-05-18T08:38:30.365Z,101326.21
2023-05-18T08:41:24.135Z,101326.91
2023-05-18T08:43:59.375Z,101325.67
2023-05-18T08:46:47.078Z,101327.37
2023-05-18T08:49:18.752Z,101327.84
2023-05-18T08:51:57.970Z,101329.89
2023-05-18T08:54:28.047Z,101324.27
2023-05-18T08:56:57.265Z,101329.89
2023-05-18T08:59:31.103Z,101325.64
2023-05-18T09:01:59.558Z,101323.77
2023-05-18T09:04:28.167Z,101326.95
2023-05-18T09:06:57.075Z,101329.36
2023-05-18T09:09:26.637Z,101332.95
2023-05-18T09:11:59.475Z,101334.95
2023-05-18T09:14:28.006Z,101335.38
2023-05-18T09:16:56.105Z,101333.73
2023-05-18T09:19:25.147Z,101329.20
2023-05-18T09:21:54.047Z,101323.30
2023-05-18T09:24:24.574Z,101322.38
2023-05-18T09:26:53.878Z,101323.55
2023-05-18T09:29:22.914Z,101327.21
2023-05-18T09:31:51.601Z,101324.23
2023-05-18T09:34:20.151Z,101326.17
2023-05-18T09:36:50.978Z,101326.88
2023-05-18T09:39:19.279Z,101335.41
2023-05-18T09:41:47.508Z,101334.59
2023-05-18T09:44:15.803Z,101335.41
2023-05-18T09:46:43.965Z,101336.21
2023-05-18T09:49:12.695Z,101338.77
2023-05-18T09:51:41.004Z,101334.73
2023-05-18T09:54:09.215Z,101334.36
2023-05-18T09:56:38.937Z,101333.50
2023-05-18T09:59:12.330Z,101336.82
2023-05-18T10:01:58.284Z,101339.98
2023-05-18T10:04:44.827Z,101343.70
2023-05-18T10:07:15.335Z,101345.02
2023-05-18T10:09:45.944Z,101345.05
2023-05-18T10:12:18.996Z,101342.91
2023-05-18T10:14:49.318Z,101347.08
2023-05-18T10:17:17.978Z,101349.56
2023-05-18T10:19:50.297Z,101347.14
2023-05-18T10:22:20.316Z,101352.04
2023-05-18T10:24:52.092Z,101349.94
2023-05-18T10:27:27.680Z,101349.20
2023-05-18T10:29:59.824Z,101350.57
2023-05-18T10:32:29.988Z,101351.83
2023-05-18T10:35:00.926Z,101355.11
2023-05-18T10:37:31.941Z,101351.07
2023-05-18T10:40:03.177Z,101350.68
2023-05-18T10:42:31.478Z,101349.92
2023-05-18T10:45:00.829Z,101347.34
2023-05-18T10:47:29.444Z,101350.02
2023-05-18T10:49:59.992Z,101342.77
2023-05-18T10:52:30.270Z,101348.99
2023-05-18T10:55:02.320Z,101342.96
2023-05-18T10:57:43.416Z,101341.12
2023-05-18T11:00:12.173Z,101339.31
2023-05-18T11:02:41.923Z,101340.10
2023-05-18T11:05:12.862Z,101335.52
2023-05-18T11:07:45.775Z,101333.83
2023-05-18T11:10:14.375Z,101329.23
2023-05-18T11:12:42.816Z,101330.44
2023-05-18T11:15:12.109Z,101329.11
2023-05-18T11:17:40.797Z,101329.87
2023-05-18T11:20:11.712Z,101332.15
2023-05-18T11:22:50.837Z,101333.15
2023-05-18T11:25:28.603Z,101334.08
2023-05-18T11:28:06.101Z,101336.14
2023-05-18T11:30:37.294Z,101337.02
2023-05-18T11:33:15.038Z,101339.98
2023-05-18T11:36:22.850Z,101334.38
2023-05-18T11:38:52.705Z,101331.78
2023-05-18T11:41:32.420Z,101329.27
2023-05-18T11:44:16.008Z,101333.71
2023-05-18T11:46:54.758Z,101335.62
2023-05-18T11:49:44.418Z,101332.20
2023-05-18T11:52:19.791Z,101334.71
2023-05-18T11:54:58.042Z,101333.83
2023-05-18T11:57:38.841Z,101334.16
2023-05-18T12:00:08.737Z,101335.63
2023-05-18T12:02:37.451Z,101328.02
2023-05-18T12:05:09.661Z,101323.61
2023-05-18T12:07:41.301Z,101324.09
2023-05-18T12:10:12.968Z,101322.17
2023-05-18T12:12:42.129Z,101319.92
2023-05-18T12:15:11.845Z,101312.83
2023-05-18T12:18:04.696Z,101313.12
2023-05-18T12:20:40.013Z,101310.23
2023-05-18T12:23:08.457Z,101308.20
2023-05-18T12:25:36.965Z,101306.89
2023-05-18T12:28:05.606Z,101304.01
2023-05-18T12:30:34.170Z,101296.73
2023-05-18T12:33:03.215Z,101294.30
2023-05-18T12:35:32.966Z,101294.48
2023-05-18T12:38:02.433Z,101289.06
2023-05-18T12:40:36.528Z,101283.48
2023-05-18T12:43:05.684Z,101280.84
2023-05-18T12:45:34.564Z,101280.73
2023-05-18T12:48:07.138Z,101284.04
2023-05-18T12:50:35.552Z,101283.56
2023-05-18T12:53:05.155Z,101280.28
2023-05-18T12:55:36.769Z,101279.59
2023-05-18T12:58:17.223Z,101272.88
2023-05-18T13:00:49.283Z,101271.64
2023-05-18T13:03:20.254Z,101265.64
2023-05-18T13:06:07.549Z,101265.37
2023-05-18T13:08:37.019Z,101268.14
2023-05-18T13:11:14.484Z,101266.67
2023-05-18T13:14:07.923Z,101265.90
2023-05-18T13:16:44.756Z,101262.65
2023-05-18T13:19:17.679Z,101268.36
2023-05-18T13:21:47.048Z,101266.79
2023-05-18T13:24:15.176Z,101256.60
2023-05-18T13:26:43.297Z,101255.05
2023-05-18T13:29:11.615Z,101254.75
2023-05-18T13:31:39.882Z,101251.37
2023-05-18T13:34:08.928Z,101246.48
2023-05-18T13:36:37.122Z,101246.08
2023-05-18T13:39:05.312Z,101246.77
2023-05-18T13:41:33.473Z,101249.39
2023-05-18T13:44:01.733Z,101244.41
2023-05-18T13:46:30.181Z,101246.77
2023-05-18T13:48:59.052Z,101238.73
2023-05-18T13:51:27.237Z,101233.41
2023-05-18T13:53:55.518Z,101235.02
2023-05-18T13:56:23.763Z,101230.06
2023-05-18T13:58:51.880Z,101231.72
2023-05-18T14:01:20.707Z,101230.77
2023-05-18T14:03:48.929Z,101230.36
2023-05-18T14:06:17.292Z,101223.19
2023-05-18T14:08:45.395Z,101222.74
2023-05-18T14:11:13.756Z,101219.46
2023-05-18T14:13:43.123Z,101217.73
2023-05-18T14:16:12.397Z,101214.80
2023-05-18T14:18:40.620Z,101214.10
2023-05-18T14:21:08.929Z,101211.90
2023-05-18T14:23:37.138Z,101211.05
2023-05-18T14:26:05.372Z,101211.29
2023-05-18T14:28:33.890Z,101213.98
2023-05-18T14:31:02.170Z,101208.48
2023-05-18T14:33:30.236Z,101207.27
2023-05-18T14:35:58.357Z,101204.89
2023-05-18T14:38:26.710Z,101204.86
2023-05-18T14:40:54.965Z,101204.73
2023-05-18T14:43:24.255Z,101200.84
2023-05-18T14:46:04.228Z,101198.19
2023-05-18T14:48:36.566Z,101197.32
2023-05-18T14:51:05.343Z,101196.41
2023-05-18T14:53:33.705Z,101194.46
2023-05-18T14:56:02.300Z,101195.09
2023-05-18T14:58:30.392Z,101192.33
2023-05-18T15:00:58.899Z,101197.04
2023-05-18T15:03:28.433Z,101195.41
2023-05-18T15:05:57.321Z,101196.64
2023-05-18T15:08:25.736Z,101199.27
2023-05-18T15:10:54.039Z,101197.92
2023-05-18T15:13:22.532Z,101198.55
2023-05-18T15:15:51.040Z,101197.35
2023-05-18T15:18:19.629Z,101194.20
2023-05-18T15:20:47.877Z,101195.06
2023-05-18T15:23:16.422Z,101195.34
2023-05-18T15:25:45.041Z,101195.45
2023-05-18T15:28:13.198Z,101198.76
2023-05-18T15:30:41.355Z,101195.72
2023-05-18T15:33:09.701Z,101197.59
2023-05-18T15:35:38.012Z,101197.21
2023-05-18T15:38:06.204Z,101198.40
2023-05-18T15:40:35.752Z,101198.86
2023-05-18T15:43:04.108Z,101202.86
2023-05-18T15:45:32.363Z,101202.88
2023-05-18T15:48:00.780Z,101204.67
2023-05-18T15:50:29.094Z,101205.86
2023-05-18T15:52:57.432Z,101211.06
2023-05-18T15:55:26.413Z,101215.46
2023-05-18T15:57:54.458Z,101217.13
2023-05-18T16:00:22.753Z,101219.08
2023-05-18T16:02:51.257Z,101222.11
2023-05-18T16:05:19.530Z,101222.73
2023-05-18T16:07:47.714Z,101228.12
2023-05-18T16:10:15.942Z,101224.70
2023-05-18T16:12:44.071Z,101223.73
2023-05-18T16:15:12.190Z,101222.75
2023-05-18T16:17:40.693Z,101219.66
2023-05-18T16:20:09.404Z,101215.75
2023-05-18T16:22:37.656Z,101211.95
2023-05-18T16:25:06.486Z,101210.29
2023-05-18T16:27:34.638Z,101201.86
2023-05-18T16:30:02.979Z,101192.23
2023-05-18T16:32:31.721Z,101188.35
2023-05-18T16:34:59.962Z,101183.66
2023-05-18T16:37:28.607Z,101179.19
2023-05-18T16:39:57.204Z,101169.07
2023-05-18T16:42:25.339Z,101160.98
2023-05-18T16:44:53.501Z,101155.21
2023-05-18T16:47:21.733Z,101149.17
2023-05-18T16:49:50.102Z,101145.64
2023-05-18T16:52:18.170Z,101151.61
2023-05-18T16:54:49.205Z,101153.95
2023-05-18T16:57:17.451Z,101158.29
2023-05-18T16:59:45.757Z,101164.06
2023-05-18T17:02:14.413Z,101168.31
2023-05-18T17:04:42.761Z,101167.29
2023-05-18T17:07:12.048Z,101167.16
2023-05-18T17:09:40.577Z,101168.77
2023-05-18T17:12:12.517Z,101165.56
2023-05-18T17:14:41.568Z,101163.78
2023-05-18T17:17:09.884Z,101165.45
2023-05-18T17:19:38.201Z,101165.30
2023-05-18T17:22:06.687Z,101165.70
2023-05-18T17:24:37.268Z,101163.92
2023-05-18T17:27:06.022Z,101160.48
2023-05-18T17:29:34.118Z,101163.70
2023-05-18T17:32:02.354Z,101150.35
2023-05-18T17:34:30.604Z,101151.50
2023-05-18T17:36:59.139Z,101148.87
2023-05-18T17:39:27.298Z,101148.79
2023-05-18T17:41:55.604Z,101154.10
2023-05-18T17:44:23.874Z,101151.55
2023-05-18T17:46:52.643Z,101152.38
2023-05-18T17:49:20.952Z,101151.17
2023-05-18T17:51:49.218Z,101148.33
2023-05-18T17:54:17.381Z,101148.27
2023-05-18T17:56:45.796Z,101147.05
2023-05-18T17:59:14.079Z,101146.50
2023-05-18T18:01:42.601Z,101144.16
2023-05-18T18:04:11.126Z,101147.77
2023-05-18T18:06:39.804Z,101146.52
2023-05-18T18:09:08.100Z,101142.58
2023-05-18T18:11:36.733Z,101147.39
2023-05-18T18:14:04.827Z,101153.48
2023-05-18T18:16:34.599Z,101151.69
2023-05-18T18:19:03.164Z,101151.38
2023-05-18T18:21:31.417Z,101154.88
2023-05-18T18:23:59.783Z,101154.00
2023-05-18T18:26:28.450Z,101154.54
2023-05-18T18:28:57.345Z,101157.91
2023-05-18T18:31:25.896Z,101160.64
2023-05-18T18:33:54.432Z,101164.21
2023-05-18T18:36:24.950Z,101165.07
2023-05-18T18:38:54.857Z,101169.48
2023-05-18T18:41:24.214Z,101168.52
2023-05-18T18:43:52.523Z,101169.84
2023-05-18T18:46:21.329Z,101170.77
2023-05-18T18:48:49.538Z,101174.69
2023-05-18T18:51:17.711Z,101177.89
2023-05-18T18:53:46.934Z,101183.59
2023-05-18T18:56:15.204Z,101193.27
2023-05-18T18:58:43.487Z,101202.63
2023-05-18T19:01:12.566Z,101204.26
2023-05-18T19:03:40.837Z,101209.10
2023-05-18T19:06:08.988Z,101210.91
2023-05-18T19:08:37.540Z,101217.73
2023-05-18T19:11:05.735Z,101222.91
2023-05-18T19:13:33.938Z,101225.59
2023-05-18T19:16:02.358Z,101229.16
2023-05-18T19:18:30.591Z,101231.86
2023-05-18T19:20:58.935Z,101234.94
2023-05-18T19:23:28.022Z,101240.73
2023-05-18T19:25:56.158Z,101244.70
2023-05-18T19:28:25.348Z,101245.63
2023-05-18T19:30:53.852Z,101243.11
2023-05-18T19:33:22.002Z,101245.09
2023-05-18T19:35:50.273Z,101242.36
2023-05-18T19:38:19.287Z,101243.80
2023-05-18T19:40:48.173Z,101245.61
2023-05-18T19:43:16.278Z,101248.31
2023-05-18T19:45:45.261Z,101249.42
2023-05-18T19:48:13.501Z,101253.40
2023-05-18T19:50:41.837Z,101257.33
2023-05-18T19:53:10.361Z,101262.58
2023-05-18T19:55:39.826Z,101263.66
2023-05-18T19:58:09.124Z,101265.83
2023-05-18T20:00:37.726Z,101268.71
2023-05-18T20:03:06.803Z,101274.46
2023-05-18T20:05:35.447Z,101279.33
2023-05-18T20:08:03.732Z,101277.54
2023-05-18T20:10:32.300Z,101290.47
2023-05-18T20:13:00.631Z,101291.20
2023-05-18T20:15:29.478Z,101289.60
2023-05-18T20:17:58.244Z,101293.55
2023-05-18T20:20:26.433Z,101295.16
2023-05-18T20:22:54.938Z,101300.92
2023-05-18T20:25:23.616Z,101303.97
2023-05-18T20:27:51.826Z,101306.48
2023-05-18T20:30:20.606Z,101308.45
2023-05-18T20:32:49.468Z,101309.55
2023-05-18T20:35:17.953Z,101314.05
2023-05-18T20:37:46.585Z,101319.80
2023-05-18T20:40:15.398Z,101322.68
2023-05-18T20:42:43.664Z,101326.80
2023-05-18T20:45:12.067Z,101333.45
2023-05-18T20:47:40.435Z,101340.63
2023-05-18T20:50:09.578Z,101347.09
2023-05-18T20:52:37.837Z,101347.30
2023-05-18T20:55:06.288Z,101344.98
2023-05-18T20:57:35.711Z,101344.27
2023-05-18T21:00:04.226Z,101345.71
2023-05-18T21:02:32.855Z,101345.36
2023-05-18T21:05:01.238Z,101346.95
2023-05-18T21:07:29.785Z,101351.27
2023-05-18T21:09:59.127Z,101353.98
2023-05-18T21:12:27.350Z,101356.31
2023-05-18T21:14:55.635Z,101354.20
2023-05-18T21:17:23.972Z,101356.00
2023-05-18T21:19:52.390Z,101357.98
2023-05-18T21:22:20.700Z,101358.17
2023-05-18T21:24:48.916Z,101360.33
2023-05-18T21:27:17.086Z,101361.22
2023-05-18T21:29:45.565Z,101363.92
2023-05-18T21:32:13.931Z,101364.99
2023-05-18T21:34:43.814Z,101367.52
2023-05-18T21:37:12.427Z,101366.27
2023-05-18T21:39:40.628Z,101363.07
2023-05-18T21:42:08.770Z,101360.02
2023-05-18T21:44:36.942Z,101358.79
2023-05-18T21:47:05.220Z,101358.61
2023-05-18T21:49:33.541Z,101358.42
2023-05-18T21:52:01.963Z,101361.65
2023-05-18T21:54:32.730Z,101361.84
2023-05-18T21:57:02.588Z,101363.27
2023-05-18T21:59:30.904Z,101355.94
2023-05-18T22:01:59.532Z,101351.83
2023-05-18T22:04:28.166Z,101350.93
2023-05-18T22:06:56.368Z,101345.73
2023-05-18T22:09:24.615Z,101347.18
2023-05-18T22:11:53.097Z,101347.00
2023-05-18T22:14:21.305Z,101344.50
2023-05-18T22:16:49.680Z,101345.56
2023-05-18T22:19:18.128Z,101345.92
2023-05-18T22:21:46.395Z,101343.05
2023-05-18T22:24:14.809Z,101338.92
2023-05-18T22:26:43.313Z,101334.27
2023-05-18T22:29:11.511Z,101332.66
2023-05-18T22:31:39.998Z,101328.91
2023-05-18T22:34:08.347Z,101325.86
2023-05-18T22:36:37.033Z,101320.50
2023-05-18T22:39:05.203Z,101316.38
2023-05-18T22:41:33.686Z,101319.44
2023-05-18T22:44:01.838Z,101311.75
2023-05-18T22:46:30.227Z,101309.95
2023-05-18T22:48:58.381Z,101308.17
2023-05-18T22:51:26.544Z,101307.63
2023-05-18T22:53:55.694Z,101307.27
2023-05-18T22:56:24.377Z,101301.36
2023-05-18T22:58:52.520Z,101297.08
2023-05-18T23:01:20.696Z,101292.78
2023-05-18T23:03:48.985Z,101287.41
2023-05-18T23:06:17.335Z,101285.98
2023-05-18T23:08:45.503Z,101280.27
2023-05-18T23:11:14.675Z,101276.33
2023-05-18T23:13:42.886Z,101270.44
2023-05-18T23:16:11.953Z,101266.31
2023-05-18T23:18:40.225Z,101265.24
2023-05-18T23:21:08.638Z,101263.63
2023-05-18T23:23:36.963Z,101258.63
2023-05-18T23:26:06.604Z,101259.70
2023-05-18T23:28:35.137Z,101250.77
2023-05-18T23:31:03.360Z,101255.22
2023-05-18T23:33:31.874Z,101248.96
2023-05-18T23:36:00.871Z,101247.17
2023-05-18T23:38:32.157Z,101247.35
2023-05-18T23:41:07.425Z,101238.95
2023-05-18T23:43:36.018Z,101238.23
2023-05-18T23:46:04.539Z,101231.62
2023-05-18T23:48:33.065Z,101224.45
2023-05-18T23:51:02.978Z,101220.13
2023-05-18T23:53:32.994Z,101223.89
2023-05-18T23:56:03.004Z,101224.42
2023-05-18T23:58:32.399Z,101225.14
